createdAt,value
2022-11-14T00:00:00.000Z,96561
2022-11-14T00:05:00.000Z,96553
2022-11-14T00:10:00.000Z,96550
2022-11-14T00:15:00.000Z,96544
2022-11-14T00:20:00.000Z,96551
2022-11-14T00:25:00.000Z,96544
2022-11-14T00:30:00.000Z,96530
2022-11-14T00:35:00.000Z,96538
2022-11-14T00:40:00.000Z,96525
2022-11-14T00:45:00.000Z,96510
2022-11-14T00:50:00.000Z,96500
2022-11-14T00:55:00.000Z,96497
2022-11-14T01:00:00.000Z,96506
2022-11-14T01:05:00.000Z,96489
2022-11-14T01:10:00.000Z,96483
2022-11-14T01:15:00.000Z,96476
2022-11-14T01:20:00.000Z,96473
2022-11-14T01:25:00.000Z,96476
2022-11-14T01:30:00.000Z,96478
2022-11-14T01:35:00.000Z,96483
2022-11-14T01:40:00.000Z,96476
2022-11-14T01:45:00.000Z,96471
2022-11-14T01:50:00.000Z,96464
2022-11-14T01:55:00.000Z,96447
2022-11-14T02:00:00.000Z,96451
2022-11-14T02:05:00.000Z,96458
2022-11-14T02:10:00.000Z,96444
2022-11-14T02:15:00.000Z,96436
2022-11-14T02:20:00.000Z,96425
2022-11-14T02:25:00.000Z,96416
2022-11-14T02:30:00.000Z,96419
2022-11-14T02:35:00.000Z,96412
2022-11-14T02:40:00.000Z,96411
2022-11-14T02:45:00.000Z,96420
2022-11-14T02:50:00.000Z,96426
2022-11-14T02:55:00.000Z,96423
2022-11-14T03:00:00.000Z,96427
2022-11-14T03:05:00.000Z,96417
2022-11-14T03:10:00.000Z,96424
2022-11-14T03:15:00.000Z,96408
2022-11-14T03:20:00.000Z,96422
2022-11-14T03:25:00.000Z,96425
2022-11-14T03:30:00.000Z,96418
2022-11-14T03:35:00.000Z,96415
2022-11-14T03:40:00.000Z,96413
2022-11-14T03:45:00.000Z,96415
2022-11-14T03:50:00.000Z,96416
2022-11-14T03:55:00.000Z,96414
2022-11-14T04:00:00.000Z,96420
2022-11-14T04:05:00.000Z,96419
2022-11-14T04:10:00.000Z,96408
2022-11-14T04:15:00.000Z,96414
2022-11-14T04:20:00.000Z,96419
2022-11-14T04:25:00.000Z,96418
2022-11-14T04:30:00.000Z,96425
2022-11-14T04:35:00.000Z,96425
2022-11-14T04:40:00.000Z,96428
2022-11-14T04:45:00.000Z,96441
2022-11-14T04:50:00.000Z,96439
2022-11-14T04:55:00.000Z,96430
2022-11-14T05:00:00.000Z,96431
2022-11-14T05:05:00.000Z,96437
2022-11-14T05:10:00.000Z,96436
2022-11-14T05:15:00.000Z,96437
2022-11-14T05:20:00.000Z,96433
2022-11-14T05:25:00.000Z,96430
2022-11-14T05:30:00.000Z,96440
2022-11-14T05:35:00.000Z,96441
2022-11-14T05:40:00.000Z,96448
2022-11-14T05:45:00.000Z,96453
2022-11-14T05:50:00.000Z,96450
2022-11-14T05:55:00.000Z,96454
2022-11-14T06:00:00.000Z,96444
2022-11-14T06:05:00.000Z,96441
2022-11-14T06:10:00.000Z,96433
2022-11-14T06:15:00.000Z,96452
2022-11-14T06:20:00.000Z,96445
2022-11-14T06:25:00.000Z,96431
2022-11-14T06:30:00.000Z,96434
2022-11-14T06:35:00.000Z,96442
2022-11-14T06:40:00.000Z,96437
2022-11-14T06:45:00.000Z,96442
2022-11-14T06:50:00.000Z,96442
2022-11-14T06:55:00.000Z,96439
2022-11-14T07:00:00.000Z,96444
2022-11-14T07:05:00.000Z,96442
2022-11-14T07:10:00.000Z,96439
2022-11-14T07:15:00.000Z,96444
2022-11-14T07:20:00.000Z,96441
2022-11-14T07:25:00.000Z,96443
2022-11-14T07:30:00.000Z,96435
2022-11-14T07:35:00.000Z,96437
2022-11-14T07:40:00.000Z,96444
2022-11-14T07:45:00.000Z,96441
2022-11-14T07:50:00.000Z,96452
2022-11-14T07:55:00.000Z,96446
2022-11-14T08:00:00.000Z,96441
2022-11-14T08:05:00.000Z,96437
2022-11-14T08:10:00.000Z,96446
2022-11-14T08:15:00.000Z,96449
2022-11-14T08:20:00.000Z,96440
2022-11-14T08:25:00.000Z,96433
2022-11-14T08:30:00.000Z,96436
2022-11-14T08:35:00.000Z,96443
2022-11-14T08:40:00.000Z,96443
2022-11-14T08:45:00.000Z,96444
2022-11-14T08:50:00.000Z,96450
2022-11-14T08:55:00.000Z,96457
2022-11-14T09:00:00.000Z,96449
2022-11-14T09:05:00.000Z,96448
2022-11-14T09:10:00.000Z,96460
2022-11-14T09:15:00.000Z,96459
2022-11-14T09:20:00.000Z,96458
2022-11-14T09:25:00.000Z,96469
2022-11-14T09:30:00.000Z,96474
2022-11-14T09:35:00.000Z,96477
2022-11-14T09:40:00.000Z,96470
2022-11-14T09:45:00.000Z,96465
2022-11-14T09:50:00.000Z,96470
2022-11-14T09:55:00.000Z,96485
2022-11-14T10:00:00.000Z,96481
2022-11-14T10:05:00.000Z,96481
2022-11-14T10:10:00.000Z,96489
2022-11-14T10:15:00.000Z,96487
2022-11-14T10:20:00.000Z,96479
2022-11-14T10:25:00.000Z,96488
2022-11-14T10:30:00.000Z,96489
2022-11-14T10:35:00.000Z,96496
2022-11-14T10:40:00.000Z,96495
2022-11-14T10:45:00.000Z,96494
2022-11-14T10:50:00.000Z,96492
2022-11-14T10:55:00.000Z,96489
2022-11-14T11:00:00.000Z,96479
2022-11-14T11:05:00.000Z,96473
2022-11-14T11:10:00.000Z,96487
2022-11-14T11:15:00.000Z,96477
2022-11-14T11:20:00.000Z,96466
2022-11-14T11:25:00.000Z,96481
2022-11-14T11:30:00.000Z,96461
2022-11-14T11:35:00.000Z,96472
2022-11-14T11:40:00.000Z,96469
2022-11-14T11:45:00.000Z,96471
2022-11-14T11:50:00.000Z,96466
2022-11-14T11:55:00.000Z,96466
2022-11-14T12:00:00.000Z,96472
2022-11-14T12:05:00.000Z,96475
2022-11-14T12:10:00.000Z,96474
2022-11-14T12:15:00.000Z,96478
2022-11-14T12:20:00.000Z,96472
2022-11-14T12:25:00.000Z,96471
2022-11-14T12:30:00.000Z,96474
2022-11-14T12:35:00.000Z,96477
2022-11-14T12:40:00.000Z,96473
2022-11-14T12:45:00.000Z,96488
2022-11-14T12:50:00.000Z,96494
2022-11-14T12:55:00.000Z,96497
2022-11-14T13:00:00.000Z,96503
2022-11-14T13:05:00.000Z,96497
2022-11-14T13:10:00.000Z,96488
2022-11-14T13:15:00.000Z,96502
2022-11-14T13:20:00.000Z,96489
2022-11-14T13:25:00.000Z,96491
2022-11-14T13:30:00.000Z,96484
2022-11-14T13:35:00.000Z,96479
2022-11-14T13:40:00.000Z,96473
2022-11-14T13:45:00.000Z,96484
2022-11-14T13:50:00.000Z,96484
2022-11-14T13:55:00.000Z,96483
2022-11-14T14:00:00.000Z,96472
2022-11-14T14:05:00.000Z,96485
2022-11-14T14:10:00.000Z,96487
2022-11-14T14:15:00.000Z,96458
2022-11-14T14:20:00.000Z,96420
2022-11-14T14:25:00.000Z,96445
2022-11-14T14:30:00.000Z,96447
2022-11-14T14:35:00.000Z,96449
2022-11-14T14:40:00.000Z,96446
2022-11-14T14:45:00.000Z,96442
2022-11-14T14:50:00.000Z,96442
2022-11-14T14:55:00.000Z,96448
2022-11-14T15:00:00.000Z,96445
2022-11-14T15:05:00.000Z,96439
2022-11-14T15:10:00.000Z,96450
2022-11-14T15:15:00.000Z,96446
2022-11-14T15:20:00.000Z,96447
2022-11-14T15:25:00.000Z,96446
2022-11-14T15:30:00.000Z,96442
2022-11-14T15:35:00.000Z,96447
2022-11-14T15:40:00.000Z,96432
2022-11-14T15:45:00.000Z,96438
2022-11-14T15:50:00.000Z,96447
2022-11-14T15:55:00.000Z,96442
2022-11-14T16:00:00.000Z,96435
2022-11-14T16:05:00.000Z,96444
2022-11-14T16:10:00.000Z,96436
2022-11-14T16:15:00.000Z,96437
2022-11-14T16:20:00.000Z,96440
2022-11-14T16:25:00.000Z,96432
2022-11-14T16:30:00.000Z,96438
2022-11-14T16:35:00.000Z,96442
2022-11-14T16:40:00.000Z,96434
2022-11-14T16:45:00.000Z,96437
2022-11-14T16:50:00.000Z,96446
2022-11-14T16:55:00.000Z,96441
2022-11-14T17:00:00.000Z,96438
2022-11-14T17:05:00.000Z,96440
2022-11-14T17:10:00.000Z,96434
2022-11-14T17:15:00.000Z,96432
2022-11-14T17:20:00.000Z,96439
2022-11-14T17:25:00.000Z,96422
2022-11-14T17:30:00.000Z,96434
2022-11-14T17:35:00.000Z,96425
2022-11-14T17:40:00.000Z,96437
2022-11-14T17:45:00.000Z,96432
2022-11-14T17:50:00.000Z,96444
2022-11-14T17:55:00.000Z,96439
2022-11-14T18:00:00.000Z,96441
2022-11-14T18:05:00.000Z,96441
2022-11-14T18:10:00.000Z,96430
2022-11-14T18:15:00.000Z,96437
2022-11-14T18:20:00.000Z,96444
2022-11-14T18:25:00.000Z,96434
2022-11-14T18:30:00.000Z,96428
2022-11-14T18:35:00.000Z,96434
2022-11-14T18:40:00.000Z,96430
2022-11-14T18:45:00.000Z,96433
2022-11-14T18:50:00.000Z,96424
2022-11-14T18:55:00.000Z,96419
2022-11-14T19:00:00.000Z,96420
2022-11-14T19:05:00.000Z,96429
2022-11-14T19:10:00.000Z,96430
2022-11-14T19:15:00.000Z,96428
2022-11-14T19:20:00.000Z,96422
2022-11-14T19:25:00.000Z,96430
2022-11-14T19:30:00.000Z,96421
2022-11-14T19:35:00.000Z,96421
2022-11-14T19:40:00.000Z,96426
2022-11-14T19:45:00.000Z,96420
2022-11-14T19:50:00.000Z,96422
2022-11-14T19:55:00.000Z,96420
2022-11-14T20:00:00.000Z,96425
2022-11-14T20:05:00.000Z,96420
2022-11-14T20:10:00.000Z,96422
2022-11-14T20:15:00.000Z,96413
2022-11-14T20:20:00.000Z,96409
2022-11-14T20:25:00.000Z,96413
2022-11-14T20:30:00.000Z,96422
2022-11-14T20:35:00.000Z,96431
2022-11-14T20:40:00.000Z,96425
2022-11-14T20:45:00.000Z,96419
2022-11-14T20:50:00.000Z,96431
2022-11-14T20:55:00.000Z,96423
2022-11-14T21:00:00.000Z,96436
2022-11-14T21:05:00.000Z,96427
2022-11-14T21:10:00.000Z,96408
2022-11-14T21:15:00.000Z,96418
2022-11-14T21:20:00.000Z,96424
2022-11-14T21:25:00.000Z,96425
2022-11-14T21:30:00.000Z,96425
2022-11-14T21:35:00.000Z,96423
2022-11-14T21:40:00.000Z,96422
2022-11-14T21:45:00.000Z,96425
2022-11-14T21:50:00.000Z,96423
2022-11-14T21:55:00.000Z,96412
2022-11-14T22:00:00.000Z,96414
2022-11-14T22:05:00.000Z,96415
2022-11-14T22:10:00.000Z,96413
2022-11-14T22:15:00.000Z,96417
2022-11-14T22:20:00.000Z,96414
2022-11-14T22:25:00.000Z,96405
2022-11-14T22:30:00.000Z,96408
2022-11-14T22:35:00.000Z,96410
2022-11-14T22:40:00.000Z,96406
2022-11-14T22:45:00.000Z,96408
2022-11-14T22:50:00.000Z,96407
2022-11-14T22:55:00.000Z,96401
2022-11-14T23:00:00.000Z,96401
2022-11-14T23:05:00.000Z,96406
2022-11-14T23:10:00.000Z,96402
2022-11-14T23:15:00.000Z,96396
2022-11-14T23:20:00.000Z,96400
2022-11-14T23:25:00.000Z,96389
2022-11-14T23:30:00.000Z,96385
2022-11-14T23:35:00.000Z,96384
2022-11-14T23:40:00.000Z,96384
2022-11-14T23:45:00.000Z,96379
2022-11-14T23:50:00.000Z,96382
2022-11-14T23:55:00.000Z,96370
